Time;durP1;ratioP1;P1;durP2;ratioP2;P2;SDS_P1;SDS_P2;PMS_P1;PMS_P2;Temp;Humidity;BMP_temperature;BMP_pressure;BME280_temperature;BME280_humidity;BME280_pressure;Samples;Min_cycle;Max_cycle;Signal;HPM_P1;HPM_P2
2023/12/31 00:02:09;;;;;;;3.55;1.20;;;;;;;;;;5052372;28;20037;-62
2023/12/31 00:04:34;;;;;;;1.40;1.27;;;;;;;;;;5053373;28;20028;-61
2023/12/31 00:07:00;;;;;;;3.15;1.50;;;;;;;;;;5052737;28;20033;-62
2023/12/31 00:09:25;;;;;;;2.33;1.23;;;;;;;;;;5043017;28;20037;-62
2023/12/31 00:11:50;;;;;;;2.60;1.42;;;;;;;;;;5033403;28;20038;-61
2023/12/31 00:14:16;;;;;;;3.20;1.50;;;;;;;;;;5044919;28;20036;-62
2023/12/31 00:16:41;;;;;;;4.97;2.35;;;;;;;;;;5053237;28;20043;-62
2023/12/31 00:19:06;;;;;;;3.75;1.67;;;;;;;;;;5050623;28;20025;-61
2023/12/31 00:21:32;;;;;;;3.92;1.63;;;;;;;;;;5057714;28;20374;-62
2023/12/31 00:23:57;;;;;;;2.80;1.40;;;;;;;;;;5051103;28;20038;-62
2023/12/31 00:26:23;;;;;;;2.78;1.60;;;;;;;;;;5051838;28;20457;-60
2023/12/31 00:28:48;;;;;;;2.92;1.70;;;;;;;;;;5054781;28;20112;-61
2023/12/31 00:31:13;;;;;;;4.10;1.50;;;;;;;;;;5065281;28;20028;-61
2023/12/31 00:33:39;;;;;;;2.65;1.52;;;;;;;;;;5056417;28;20044;-61
2023/12/31 00:36:04;;;;;;;3.13;1.70;;;;;;;;;;5053617;28;20061;-62
2023/12/31 00:38:30;;;;;;;2.80;1.55;;;;;;;;;;5052102;28;20075;-61
2023/12/31 00:40:55;;;;;;;3.15;1.50;;;;;;;;;;5048832;28;20087;-62
2023/12/31 00:43:20;;;;;;;3.30;1.60;;;;;;;;;;5032714;28;20029;-61
2023/12/31 00:45:46;;;;;;;3.13;1.80;;;;;;;;;;5033289;28;20029;-61
2023/12/31 00:48:11;;;;;;;3.50;1.60;;;;;;;;;;5035126;28;20033;-62
2023/12/31 00:50:37;;;;;;;2.55;1.63;;;;;;;;;;5052120;28;20036;-62
2023/12/31 00:53:02;;;;;;;4.60;1.60;;;;;;;;;;5055730;28;20374;-60
2023/12/31 00:55:28;;;;;;;3.08;1.77;;;;;;;;;;5051932;28;20032;-61
2023/12/31 00:57:53;;;;;;;3.08;1.80;;;;;;;;;;5053947;28;20028;-60
2023/12/31 01:00:19;;;;;;;5.32;2.00;;;;;;;;;;5049150;28;20029;-62
2023/12/31 01:02:45;;;;;;;4.05;2.22;;;;;;;;;;5050533;28;20116;-62
2023/12/31 01:05:10;;;;;;;3.50;2.10;;;;;;;;;;5053810;28;20107;-61
2023/12/31 01:07:36;;;;;;;4.22;2.00;;;;;;;;;;5051040;28;20037;-62
2023/12/31 01:10:01;;;;;;;2.97;1.77;;;;;;;;;;5045192;28;20400;-62
2023/12/31 01:12:27;;;;;;;4.50;2.10;;;;;;;;;;5048946;28;20083;-61
2023/12/31 01:14:52;;;;;;;3.70;2.22;;;;;;;;;;5033032;28;20041;-60
2023/12/31 01:17:18;;;;;;;3.65;2.10;;;;;;;;;;5054146;28;20090;-60
2023/12/31 01:19:43;;;;;;;3.50;2.17;;;;;;;;;;5050743;28;20021;-62
2023/12/31 01:22:09;;;;;;;4.07;2.28;;;;;;;;;;5053589;28;20095;-62
2023/12/31 01:24:34;;;;;;;4.88;2.55;;;;;;;;;;5051334;28;20083;-62
2023/12/31 01:26:59;;;;;;;4.60;2.35;;;;;;;;;;5051163;28;20060;-61
2023/12/31 01:29:25;;;;;;;3.38;2.28;;;;;;;;;;5050025;28;20483;-61
2023/12/31 01:31:50;;;;;;;5.70;2.50;;;;;;;;;;5050631;28;20116;-60
2023/12/31 01:34:16;;;;;;;4.43;2.63;;;;;;;;;;5051040;28;20051;-60
2023/12/31 01:36:41;;;;;;;4.28;2.30;;;;;;;;;;5032347;28;20037;-61
2023/12/31 01:39:09;;;;;;;5.03;2.72;;;;;;;;;;5050744;28;20029;-61
2023/12/31 01:41:35;;;;;;;6.40;2.78;;;;;;;;;;5049294;28;20043;-61
2023/12/31 01:44:02;;;;;;;4.53;2.70;;;;;;;;;;5031780;28;20029;-60
2023/12/31 01:46:29;;;;;;;4.65;2.80;;;;;;;;;;5046058;28;20040;-62
2023/12/31 01:48:55;;;;;;;4.15;2.63;;;;;;;;;;5049936;28;20029;-61
2023/12/31 01:51:22;;;;;;;4.10;2.60;;;;;;;;;;5049165;28;20040;-61
2023/12/31 01:53:47;;;;;;;3.95;2.42;;;;;;;;;;5049726;28;20032;-62
2023/12/31 01:56:13;;;;;;;4.10;2.40;;;;;;;;;;5050611;28;20389;-61
2023/12/31 01:58:39;;;;;;;4.65;2.70;;;;;;;;;;5050027;28;20381;-61
2023/12/31 02:01:05;;;;;;;5.35;2.50;;;;;;;;;;5049424;28;20032;-61
2023/12/31 02:03:30;;;;;;;3.40;2.30;;;;;;;;;;5043740;28;20094;-61
2023/12/31 02:05:56;;;;;;;4.20;2.40;;;;;;;;;;5033372;28;20583;-61
2023/12/31 02:08:23;;;;;;;5.40;2.38;;;;;;;;;;5048178;28;20037;-61
2023/12/31 02:10:50;;;;;;;3.42;2.22;;;;;;;;;;5049466;28;20106;-61
2023/12/31 02:13:16;;;;;;;3.38;2.10;;;;;;;;;;5049317;28;20109;-62
2023/12/31 02:15:41;;;;;;;3.92;2.38;;;;;;;;;;5048613;28;20040;-60
2023/12/31 02:18:07;;;;;;;4.32;2.25;;;;;;;;;;5050991;28;20028;-61
2023/12/31 02:20:32;;;;;;;3.75;2.03;;;;;;;;;;5048574;28;20040;-62
2023/12/31 02:22:58;;;;;;;2.75;2.00;;;;;;;;;;5051530;28;20055;-61
2023/12/31 02:25:26;;;;;;;5.80;2.28;;;;;;;;;;5056716;28;20063;-61
2023/12/31 02:27:52;;;;;;;5.20;2.58;;;;;;;;;;5053851;28;20421;-60
2023/12/31 02:30:18;;;;;;;3.05;1.80;;;;;;;;;;5054328;28;20037;-60
2023/12/31 02:32:43;;;;;;;4.00;2.10;;;;;;;;;;5052999;28;20036;-61
2023/12/31 02:35:09;;;;;;;3.17;2.10;;;;;;;;;;5054380;28;20033;-62
2023/12/31 02:37:34;;;;;;;4.35;1.92;;;;;;;;;;5052885;28;20071;-61
2023/12/31 02:40:00;;;;;;;3.03;2.10;;;;;;;;;;5053385;28;20107;-61
2023/12/31 02:42:25;;;;;;;5.30;2.00;;;;;;;;;;5052101;28;20534;-61
2023/12/31 02:44:50;;;;;;;3.78;2.10;;;;;;;;;;5048388;28;20033;-60
2023/12/31 02:47:16;;;;;;;3.53;1.77;;;;;;;;;;5050711;28;20029;-61
2023/12/31 02:49:41;;;;;;;2.88;2.08;;;;;;;;;;5053093;28;20390;-61
2023/12/31 02:52:07;;;;;;;3.13;1.88;;;;;;;;;;5053142;28;20037;-61
2023/12/31 02:54:32;;;;;;;5.72;2.30;;;;;;;;;;5038336;28;20038;-60
2023/12/31 02:56:58;;;;;;;4.10;1.80;;;;;;;;;;5052502;28;20077;-61
2023/12/31 02:59:23;;;;;;;2.83;1.90;;;;;;;;;;5046662;28;20033;-61
2023/12/31 03:01:50;;;;;;;3.63;2.08;;;;;;;;;;5048083;28;20033;-60
2023/12/31 03:04:15;;;;;;;2.40;1.80;;;;;;;;;;5050076;28;20044;-61
2023/12/31 03:06:40;;;;;;;4.20;2.10;;;;;;;;;;5055908;28;20025;-61
2023/12/31 03:09:06;;;;;;;3.00;1.90;;;;;;;;;;5050516;28;20591;-61
2023/12/31 03:11:33;;;;;;;3.15;2.00;;;;;;;;;;5053257;28;20050;-61
2023/12/31 03:13:59;;;;;;;2.70;1.80;;;;;;;;;;5053232;28;20052;-62
2023/12/31 03:16:25;;;;;;;3.78;2.10;;;;;;;;;;5052821;28;20053;-62
2023/12/31 03:18:52;;;;;;;3.83;2.10;;;;;;;;;;5051608;28;20040;-61
2023/12/31 03:21:18;;;;;;;2.78;1.90;;;;;;;;;;5053669;28;20118;-62
2023/12/31 03:23:43;;;;;;;3.20;2.05;;;;;;;;;;5053130;28;20064;-62
2023/12/31 03:26:09;;;;;;;3.08;1.95;;;;;;;;;;5053371;28;20037;-62
2023/12/31 03:28:36;;;;;;;2.58;1.88;;;;;;;;;;5052771;28;20032;-62
2023/12/31 03:31:03;;;;;;;4.43;2.10;;;;;;;;;;5053602;28;20457;-61
2023/12/31 03:33:28;;;;;;;3.10;1.80;;;;;;;;;;5056536;28;20029;-61
2023/12/31 03:35:54;;;;;;;3.80;2.10;;;;;;;;;;5052815;28;20032;-61
2023/12/31 03:38:19;;;;;;;3.40;1.98;;;;;;;;;;5051978;28;20033;-61
2023/12/31 03:40:44;;;;;;;4.13;2.10;;;;;;;;;;5051429;28;20115;-61
2023/12/31 03:43:10;;;;;;;3.47;1.98;;;;;;;;;;5052004;28;20052;-61
2023/12/31 03:45:35;;;;;;;4.15;2.00;;;;;;;;;;5050126;28;20021;-61
2023/12/31 03:48:01;;;;;;;4.85;2.00;;;;;;;;;;5051737;28;20033;-61
2023/12/31 03:50:26;;;;;;;2.92;1.92;;;;;;;;;;5052918;28;20389;-61
2023/12/31 03:52:51;;;;;;;4.45;2.40;;;;;;;;;;5053259;28;20044;-61
2023/12/31 03:55:17;;;;;;;3.80;2.20;;;;;;;;;;5061784;28;20032;-61
2023/12/31 03:57:42;;;;;;;2.55;2.00;;;;;;;;;;5073616;28;20039;-60
2023/12/31 04:00:08;;;;;;;3.65;2.00;;;;;;;;;;5057176;28;20079;-61
2023/12/31 04:02:34;;;;;;;4.78;2.00;;;;;;;;;;5035252;28;20041;-60
2023/12/31 04:05:00;;;;;;;3.83;2.10;;;;;;;;;;5051395;28;20119;-61
2023/12/31 04:07:25;;;;;;;3.95;2.17;;;;;;;;;;5048180;28;20025;-61
2023/12/31 04:09:51;;;;;;;4.47;2.47;;;;;;;;;;5054610;28;20087;-61
2023/12/31 04:12:16;;;;;;;2.85;1.98;;;;;;;;;;5053451;28;20051;-61
2023/12/31 04:14:42;;;;;;;3.00;1.90;;;;;;;;;;5053739;28;20043;-61
2023/12/31 04:17:07;;;;;;;3.30;2.10;;;;;;;;;;5052412;28;20469;-61
2023/12/31 04:19:32;;;;;;;3.17;2.20;;;;;;;;;;5053400;28;20025;-61
2023/12/31 04:21:58;;;;;;;2.97;2.10;;;;;;;;;;5053290;28;20132;-61
2023/12/31 04:24:23;;;;;;;4.18;2.10;;;;;;;;;;5051576;28;20079;-61
2023/12/31 04:26:49;;;;;;;4.45;2.30;;;;;;;;;;5052807;28;20055;-61
2023/12/31 04:29:14;;;;;;;3.47;2.05;;;;;;;;;;5052110;28;20439;-61
2023/12/31 04:31:45;;;;;;;4.75;2.25;;;;;;;;;;5048563;28;20029;-61
2023/12/31 04:34:10;;;;;;;3.70;2.30;;;;;;;;;;5051878;28;20086;-61
2023/12/31 04:36:35;;;;;;;3.13;2.20;;;;;;;;;;5049958;28;20124;-60
2023/12/31 04:39:01;;;;;;;3.30;2.10;;;;;;;;;;5050639;28;20124;-61
2023/12/31 04:41:26;;;;;;;3.92;2.38;;;;;;;;;;5050762;28;20121;-61
2023/12/31 04:43:52;;;;;;;4.10;2.30;;;;;;;;;;5052750;28;20025;-61
2023/12/31 04:46:19;;;;;;;3.40;2.10;;;;;;;;;;5043993;28;20372;-61
2023/12/31 04:48:44;;;;;;;3.65;2.35;;;;;;;;;;5051060;28;20116;-61
2023/12/31 04:51:10;;;;;;;5.03;2.17;;;;;;;;;;5050809;28;20127;-61
2023/12/31 04:53:36;;;;;;;3.38;2.20;;;;;;;;;;5052736;28;20087;-61
2023/12/31 04:56:02;;;;;;;2.83;2.22;;;;;;;;;;5051323;28;20385;-60
2023/12/31 04:58:27;;;;;;;2.90;1.92;;;;;;;;;;5051521;28;20495;-60
2023/12/31 05:00:52;;;;;;;4.38;2.00;;;;;;;;;;5051425;28;20036;-60
2023/12/31 05:03:18;;;;;;;3.28;2.05;;;;;;;;;;5050467;28;20481;-60
2023/12/31 05:05:43;;;;;;;3.75;2.10;;;;;;;;;;5051953;28;20037;-61
2023/12/31 05:08:09;;;;;;;3.15;2.13;;;;;;;;;;5048644;28;20104;-61
2023/12/31 05:10:36;;;;;;;2.53;1.80;;;;;;;;;;5052276;28;20029;-61
2023/12/31 05:13:04;;;;;;;2.50;2.00;;;;;;;;;;5052546;28;20029;-61
2023/12/31 05:15:30;;;;;;;2.60;1.80;;;;;;;;;;5049265;28;20056;-61
2023/12/31 05:17:56;;;;;;;2.80;2.00;;;;;;;;;;5052234;28;20469;-62
2023/12/31 05:20:21;;;;;;;3.60;1.92;;;;;;;;;;5050489;28;20044;-61
2023/12/31 05:22:46;;;;;;;3.20;2.00;;;;;;;;;;5047787;28;20040;-61
2023/12/31 05:25:12;;;;;;;3.65;2.25;;;;;;;;;;5049845;28;20120;-62
2023/12/31 05:27:37;;;;;;;2.50;1.98;;;;;;;;;;5050369;28;20035;-61
2023/12/31 05:30:03;;;;;;;2.65;1.70;;;;;;;;;;5052081;28;20029;-61
2023/12/31 05:32:28;;;;;;;2.67;1.65;;;;;;;;;;5049893;28;20476;-61
2023/12/31 05:34:54;;;;;;;2.13;1.60;;;;;;;;;;5031389;28;20025;-61
2023/12/31 05:37:19;;;;;;;3.00;1.80;;;;;;;;;;5050105;28;20477;-61
2023/12/31 05:39:45;;;;;;;3.53;1.70;;;;;;;;;;5051945;28;20025;-61
2023/12/31 05:42:10;;;;;;;3.08;1.80;;;;;;;;;;5032159;28;20534;-61
2023/12/31 05:44:36;;;;;;;3.85;2.00;;;;;;;;;;5045581;28;20406;-61
2023/12/31 05:47:01;;;;;;;2.30;1.70;;;;;;;;;;5042169;28;20029;-61
2023/12/31 05:49:26;;;;;;;2.80;1.60;;;;;;;;;;5050238;28;20040;-61
2023/12/31 05:51:52;;;;;;;3.05;1.95;;;;;;;;;;5050914;28;21449;-61
2023/12/31 05:54:17;;;;;;;2.28;1.60;;;;;;;;;;5049707;28;20063;-61
2023/12/31 05:56:42;;;;;;;2.30;1.55;;;;;;;;;;5051394;28;20039;-61
2023/12/31 05:59:08;;;;;;;3.08;1.60;;;;;;;;;;5049952;28;20116;-61
2023/12/31 06:01:33;;;;;;;3.05;1.60;;;;;;;;;;5049790;28;20029;-61
2023/12/31 06:03:59;;;;;;;2.10;1.65;;;;;;;;;;5050316;28;20036;-61
2023/12/31 06:06:24;;;;;;;4.43;1.90;;;;;;;;;;5047957;28;20025;-61
2023/12/31 06:08:49;;;;;;;2.70;1.80;;;;;;;;;;5050234;28;20060;-61
2023/12/31 06:11:15;;;;;;;2.35;1.80;;;;;;;;;;5050904;28;20032;-61
2023/12/31 06:13:40;;;;;;;3.08;1.90;;;;;;;;;;5050393;28;20529;-61
2023/12/31 06:16:05;;;;;;;2.85;1.90;;;;;;;;;;5050759;28;20025;-61
2023/12/31 06:18:31;;;;;;;2.28;1.73;;;;;;;;;;5030204;28;20032;-61
2023/12/31 06:20:56;;;;;;;2.75;1.80;;;;;;;;;;5047222;28;20470;-60
2023/12/31 06:23:21;;;;;;;2.92;1.85;;;;;;;;;;5032308;28;20044;-61
2023/12/31 06:25:47;;;;;;;3.45;1.77;;;;;;;;;;5049239;28;20029;-61
2023/12/31 06:28:12;;;;;;;2.55;1.85;;;;;;;;;;5050603;28;20527;-61
2023/12/31 06:30:38;;;;;;;3.53;2.08;;;;;;;;;;5049368;28;20120;-61
2023/12/31 06:33:04;;;;;;;3.28;1.90;;;;;;;;;;5053533;28;20445;-61
2023/12/31 06:35:29;;;;;;;3.47;2.00;;;;;;;;;;5046435;28;20025;-61
2023/12/31 06:37:55;;;;;;;4.53;2.00;;;;;;;;;;5050187;28;20032;-60
2023/12/31 06:40:20;;;;;;;3.95;2.03;;;;;;;;;;5031630;28;20033;-61
2023/12/31 06:42:46;;;;;;;2.22;1.70;;;;;;;;;;5053619;28;20445;-62
2023/12/31 06:45:11;;;;;;;4.90;2.08;;;;;;;;;;5047843;28;20488;-62
2023/12/31 06:47:36;;;;;;;2.83;2.00;;;;;;;;;;5056362;28;20033;-62
2023/12/31 06:50:02;;;;;;;2.92;1.83;;;;;;;;;;5056073;28;20025;-62
2023/12/31 06:52:27;;;;;;;2.90;2.08;;;;;;;;;;5035639;28;20028;-61
2023/12/31 06:54:53;;;;;;;2.85;1.80;;;;;;;;;;5052824;28;20094;-62
2023/12/31 06:57:18;;;;;;;3.15;1.90;;;;;;;;;;5052007;28;20036;-61
2023/12/31 06:59:44;;;;;;;3.50;2.00;;;;;;;;;;5051229;28;20065;-61
2023/12/31 07:02:09;;;;;;;3.08;1.98;;;;;;;;;;5053377;28;20060;-61
2023/12/31 07:04:34;;;;;;;3.13;1.90;;;;;;;;;;5052672;28;20044;-61
2023/12/31 07:07:00;;;;;;;6.28;1.88;;;;;;;;;;5050444;28;20033;-60
2023/12/31 07:09:28;;;;;;;4.03;1.90;;;;;;;;;;5050102;28;21854;-61
2023/12/31 07:11:53;;;;;;;2.67;1.90;;;;;;;;;;5054757;28;20048;-61
2023/12/31 07:14:20;;;;;;;4.72;2.10;;;;;;;;;;5052497;28;20033;-61
2023/12/31 07:16:46;;;;;;;2.72;1.90;;;;;;;;;;5057763;28;20035;-60
2023/12/31 07:19:11;;;;;;;2.22;1.92;;;;;;;;;;5052115;28;20385;-60
2023/12/31 07:21:37;;;;;;;3.42;2.00;;;;;;;;;;5050949;28;20473;-60
2023/12/31 07:24:02;;;;;;;3.13;1.75;;;;;;;;;;5051901;28;20171;-60
2023/12/31 07:26:28;;;;;;;5.32;2.05;;;;;;;;;;5052323;28;20151;-60
2023/12/31 07:28:55;;;;;;;2.88;1.90;;;;;;;;;;5043743;28;20061;-61
2023/12/31 07:31:21;;;;;;;2.85;1.98;;;;;;;;;;5046915;28;20112;-60
2023/12/31 07:33:47;;;;;;;2.45;1.90;;;;;;;;;;5034323;28;20159;-61
2023/12/31 07:36:12;;;;;;;4.68;2.10;;;;;;;;;;5048344;28;20033;-61
2023/12/31 07:38:38;;;;;;;2.58;1.80;;;;;;;;;;5051347;28;20029;-61
2023/12/31 07:41:03;;;;;;;3.25;1.98;;;;;;;;;;5050689;28;20029;-61
2023/12/31 07:43:30;;;;;;;3.05;1.98;;;;;;;;;;5052242;28;20040;-60
2023/12/31 07:45:56;;;;;;;2.67;1.73;;;;;;;;;;5055356;28;20043;-61
2023/12/31 07:48:21;;;;;;;2.78;1.80;;;;;;;;;;5051324;28;20028;-60
2023/12/31 07:50:46;;;;;;;3.42;2.05;;;;;;;;;;5051434;28;20091;-60
2023/12/31 07:53:12;;;;;;;2.63;1.92;;;;;;;;;;5052552;28;20375;-60
2023/12/31 07:55:37;;;;;;;3.13;1.95;;;;;;;;;;5050799;28;20098;-60
2023/12/31 07:58:03;;;;;;;3.63;2.05;;;;;;;;;;5051129;28;20033;-61
2023/12/31 08:00:28;;;;;;;2.70;1.73;;;;;;;;;;5051405;28;20442;-60
2023/12/31 08:02:53;;;;;;;4.45;2.20;;;;;;;;;;5048333;28;20414;-61
2023/12/31 08:05:19;;;;;;;3.00;1.98;;;;;;;;;;5052677;28;20106;-62
2023/12/31 08:07:44;;;;;;;2.47;1.98;;;;;;;;;;5051450;28;20028;-61
2023/12/31 08:10:11;;;;;;;3.08;2.10;;;;;;;;;;5051309;28;20037;-61
2023/12/31 08:12:37;;;;;;;3.85;2.10;;;;;;;;;;5049843;28;20025;-60
2023/12/31 08:15:02;;;;;;;3.85;2.13;;;;;;;;;;5048916;28;20108;-60
2023/12/31 08:17:28;;;;;;;4.53;2.20;;;;;;;;;;5048545;28;20029;-60
2023/12/31 08:19:53;;;;;;;3.30;2.20;;;;;;;;;;5050768;28;20044;-61
2023/12/31 08:22:18;;;;;;;3.17;1.90;;;;;;;;;;5051588;28;20031;-61
2023/12/31 08:24:44;;;;;;;4.70;2.00;;;;;;;;;;5049480;28;20122;-62
2023/12/31 08:27:10;;;;;;;4.70;2.20;;;;;;;;;;5052628;28;20457;-61
2023/12/31 08:29:39;;;;;;;4.57;1.77;;;;;;;;;;5036970;28;20040;-61
2023/12/31 08:32:04;;;;;;;2.83;1.95;;;;;;;;;;5052900;28;20115;-61
2023/12/31 08:34:30;;;;;;;3.83;2.13;;;;;;;;;;5052262;28;20117;-61
2023/12/31 08:36:55;;;;;;;4.10;2.22;;;;;;;;;;5052629;28;20094;-60
2023/12/31 08:39:20;;;;;;;3.10;2.00;;;;;;;;;;5051411;28;20414;-61
2023/12/31 08:41:46;;;;;;;3.08;1.95;;;;;;;;;;5053127;28;20061;-61
2023/12/31 08:44:11;;;;;;;4.00;1.95;;;;;;;;;;5052659;28;20029;-62
2023/12/31 08:46:36;;;;;;;2.83;1.80;;;;;;;;;;5034303;28;20029;-62
2023/12/31 08:49:02;;;;;;;3.33;1.90;;;;;;;;;;5034212;28;20527;-62
2023/12/31 08:51:27;;;;;;;4.25;2.20;;;;;;;;;;5051408;28;20040;-62
2023/12/31 08:53:54;;;;;;;3.10;2.17;;;;;;;;;;5052737;28;20488;-62
2023/12/31 08:56:19;;;;;;;5.00;2.20;;;;;;;;;;5046030;28;20103;-62
2023/12/31 08:58:44;;;;;;;3.20;2.00;;;;;;;;;;5038840;28;20044;-61
2023/12/31 09:01:12;;;;;;;4.78;2.38;;;;;;;;;;5051530;28;20025;-63
2023/12/31 09:03:37;;;;;;;3.47;2.03;;;;;;;;;;5049992;28;20557;-61
2023/12/31 09:06:03;;;;;;;3.50;1.85;;;;;;;;;;5052837;28;20564;-61
2023/12/31 09:08:28;;;;;;;3.78;2.20;;;;;;;;;;5050259;28;20025;-61
2023/12/31 09:10:55;;;;;;;3.65;1.70;;;;;;;;;;5052017;28;20037;-61
2023/12/31 09:13:23;;;;;;;5.07;2.05;;;;;;;;;;5051513;28;20485;-63
2023/12/31 09:15:49;;;;;;;4.57;2.60;;;;;;;;;;5052638;28;20036;-61
2023/12/31 09:18:16;;;;;;;2.92;1.90;;;;;;;;;;5051448;28;20043;-61
2023/12/31 09:20:42;;;;;;;4.32;2.20;;;;;;;;;;5050594;28;20032;-61
2023/12/31 09:23:07;;;;;;;4.43;1.88;;;;;;;;;;5051583;28;20045;-61
2023/12/31 09:25:32;;;;;;;3.00;2.20;;;;;;;;;;5051624;28;20536;-61
2023/12/31 09:27:58;;;;;;;2.78;1.88;;;;;;;;;;5050828;28;20048;-61
2023/12/31 09:30:23;;;;;;;3.13;2.15;;;;;;;;;;5050432;28;20037;-63
2023/12/31 09:32:49;;;;;;;3.90;2.05;;;;;;;;;;5036409;28;20142;-62
2023/12/31 09:35:14;;;;;;;4.13;2.30;;;;;;;;;;5035878;28;20390;-62
2023/12/31 09:37:40;;;;;;;5.18;2.50;;;;;;;;;;5050161;28;20029;-62
2023/12/31 09:40:06;;;;;;;3.45;2.10;;;;;;;;;;5051502;28;20029;-62
2023/12/31 09:42:51;;;;;;;3.28;2.15;;;;;;;;;;5033119;28;20041;-62
2023/12/31 09:45:23;;;;;;;4.78;2.22;;;;;;;;;;5031600;28;20029;-62
2023/12/31 09:47:49;;;;;;;3.20;2.30;;;;;;;;;;5031650;28;20029;-62
2023/12/31 09:50:18;;;;;;;4.35;2.42;;;;;;;;;;5040842;28;20029;-61
2023/12/31 09:52:46;;;;;;;3.58;2.40;;;;;;;;;;5035285;28;20068;-62
2023/12/31 09:55:12;;;;;;;4.10;2.42;;;;;;;;;;5034254;28;20040;-60
2023/12/31 09:57:42;;;;;;;3.72;2.33;;;;;;;;;;5039086;28;20037;-63
2023/12/31 10:00:08;;;;;;;4.32;2.25;;;;;;;;;;5031823;28;20029;-62
2023/12/31 10:02:34;;;;;;;4.03;2.38;;;;;;;;;;5032230;28;20402;-62
2023/12/31 10:05:00;;;;;;;4.65;2.40;;;;;;;;;;5049346;28;20462;-62
2023/12/31 10:07:26;;;;;;;4.55;2.38;;;;;;;;;;5050870;28;20525;-63
2023/12/31 10:09:54;;;;;;;5.25;2.60;;;;;;;;;;5051544;28;20109;-62
2023/12/31 10:12:20;;;;;;;4.53;2.70;;;;;;;;;;5051290;28;20079;-62
2023/12/31 10:14:46;;;;;;;4.40;2.30;;;;;;;;;;5050653;28;20860;-62
2023/12/31 10:17:11;;;;;;;4.18;2.42;;;;;;;;;;5051574;28;20511;-63
2023/12/31 10:19:38;;;;;;;5.20;2.50;;;;;;;;;;5046188;28;20116;-63
2023/12/31 10:22:10;;;;;;;3.42;2.38;;;;;;;;;;5031631;28;20041;-63
2023/12/31 10:24:35;;;;;;;4.18;2.60;;;;;;;;;;5031035;28;20045;-63
2023/12/31 10:27:04;;;;;;;3.90;2.25;;;;;;;;;;5031531;28;20047;-62
2023/12/31 10:29:31;;;;;;;4.32;2.60;;;;;;;;;;5034937;28;20047;-62
2023/12/31 10:31:56;;;;;;;4.72;2.53;;;;;;;;;;5039384;28;20463;-61
2023/12/31 10:34:22;;;;;;;4.45;2.50;;;;;;;;;;5031575;28;20105;-61
2023/12/31 10:36:48;;;;;;;3.13;2.28;;;;;;;;;;5029440;28;20035;-61
2023/12/31 10:39:40;;;;;;;4.45;2.40;;;;;;;;;;5031153;28;20386;-62
2023/12/31 10:42:06;;;;;;;4.85;2.60;;;;;;;;;;5028543;28;20076;-62
2023/12/31 10:44:34;;;;;;;4.22;2.35;;;;;;;;;;5030603;28;20064;-62
2023/12/31 10:47:04;;;;;;;4.03;2.55;;;;;;;;;;5046333;28;20389;-62
2023/12/31 10:49:30;;;;;;;4.32;2.80;;;;;;;;;;5039314;28;20030;-62
2023/12/31 10:51:59;;;;;;;3.55;2.20;;;;;;;;;;5035018;28;20469;-61
2023/12/31 10:54:31;;;;;;;3.20;2.20;;;;;;;;;;5034864;28;20415;-63
2023/12/31 10:56:57;;;;;;;7.03;2.28;;;;;;;;;;5035353;28;20030;-61
2023/12/31 10:59:29;;;;;;;3.85;2.30;;;;;;;;;;5034783;28;20052;-64
2023/12/31 11:01:56;;;;;;;4.40;2.50;;;;;;;;;;5041082;28;20032;-61
2023/12/31 11:04:24;;;;;;;3.08;2.17;;;;;;;;;;5055351;28;20033;-61
2023/12/31 11:06:49;;;;;;;2.95;1.98;;;;;;;;;;5054472;28;20037;-61
2023/12/31 11:09:15;;;;;;;4.22;2.42;;;;;;;;;;5037172;28;20040;-60
2023/12/31 11:11:44;;;;;;;4.18;2.30;;;;;;;;;;5053595;28;20108;-63
2023/12/31 11:14:12;;;;;;;3.38;2.00;;;;;;;;;;5054609;28;20033;-63
2023/12/31 11:17:01;;;;;;;4.28;2.13;;;;;;;;;;5051896;28;20490;-63
2023/12/31 11:19:57;;;;;;;2.67;1.80;;;;;;;;;;5034918;28;20032;-64
2023/12/31 11:22:53;;;;;;;2.33;1.60;;;;;;;;;;5034729;28;20190;-62
2023/12/31 11:25:22;;;;;;;1.38;1.10;;;;;;;;;;5034854;28;20063;-61
2023/12/31 11:27:53;;;;;;;2.40;1.25;;;;;;;;;;5033669;28;20069;-61
2023/12/31 11:30:43;;;;;;;;;;;;;;;;;;5034920;28;20025;-60
2023/12/31 11:33:09;;;;;;;2.25;1.63;;;;;;;;;;5037254;28;20266;-61
2023/12/31 11:35:44;;;;;;;3.80;1.65;;;;;;;;;;5033514;28;20036;-61
2023/12/31 11:38:09;;;;;;;2.13;1.50;;;;;;;;;;5034350;28;20600;-60
2023/12/31 11:40:39;;;;;;;2.20;1.55;;;;;;;;;;5033389;28;20041;-60
2023/12/31 11:43:14;;;;;;;5.65;2.47;;;;;;;;;;5034414;28;20063;-60
2023/12/31 11:45:48;;;;;;;2.85;1.63;;;;;;;;;;5033553;28;20025;-61
2023/12/31 11:48:31;;;;;;;2.00;1.52;;;;;;;;;;5043594;28;20062;-61
2023/12/31 11:51:03;;;;;;;2.08;1.48;;;;;;;;;;5053985;28;20147;-61
2023/12/31 11:53:47;;;;;;;4.15;1.80;;;;;;;;;;5053182;28;20362;-62
2023/12/31 11:56:13;;;;;;;1.33;1.15;;;;;;;;;;5047858;28;20075;-61
2023/12/31 11:58:39;;;;;;;2.33;1.25;;;;;;;;;;5033263;28;20493;-60
2023/12/31 12:01:04;;;;;;;1.00;0.90;;;;;;;;;;5033759;28;20030;-60
2023/12/31 12:03:29;;;;;;;1.92;1.10;;;;;;;;;;5033081;28;20029;-61
2023/12/31 12:05:55;;;;;;;1.33;1.02;;;;;;;;;;5034019;28;20481;-60
2023/12/31 12:08:20;;;;;;;2.00;1.00;;;;;;;;;;5033839;28;20123;-60
2023/12/31 12:10:46;;;;;;;3.05;1.38;;;;;;;;;;5038462;28;20024;-60
2023/12/31 12:13:11;;;;;;;1.60;1.20;;;;;;;;;;5052619;28;20043;-60
2023/12/31 12:15:38;;;;;;;1.85;1.02;;;;;;;;;;5052863;28;20025;-60
2023/12/31 12:18:14;;;;;;;1.13;1.00;;;;;;;;;;5053770;28;20037;-60
2023/12/31 12:20:40;;;;;;;3.40;1.40;;;;;;;;;;5052716;28;20060;-60
2023/12/31 12:23:06;;;;;;;1.67;0.90;;;;;;;;;;5053434;28;20091;-60
2023/12/31 12:25:31;;;;;;;2.10;1.15;;;;;;;;;;5047173;28;20053;-61
2023/12/31 12:27:57;;;;;;;1.17;1.00;;;;;;;;;;5033270;28;20025;-61
2023/12/31 12:30:27;;;;;;;3.30;1.00;;;;;;;;;;5034439;28;20492;-60
2023/12/31 12:32:53;;;;;;;3.47;1.05;;;;;;;;;;5032828;28;20112;-61
2023/12/31 12:35:18;;;;;;;2.22;1.00;;;;;;;;;;5051062;28;20485;-61
2023/12/31 12:37:44;;;;;;;2.35;1.00;;;;;;;;;;5052566;28;20429;-61
2023/12/31 12:40:15;;;;;;;2.88;1.20;;;;;;;;;;5034959;28;20029;-60
2023/12/31 12:42:40;;;;;;;1.27;1.10;;;;;;;;;;5052380;28;20457;-60
2023/12/31 12:45:09;;;;;;;1.17;1.00;;;;;;;;;;5053162;28;20048;-62
2023/12/31 12:47:35;;;;;;;1.42;1.15;;;;;;;;;;5052298;28;20096;-63
2023/12/31 12:50:01;;;;;;;1.55;1.05;;;;;;;;;;5050745;28;20175;-62
2023/12/31 12:52:28;;;;;;;1.15;1.00;;;;;;;;;;5051007;28;20484;-63
2023/12/31 12:54:53;;;;;;;1.33;0.93;;;;;;;;;;5052259;28;20040;-62
2023/12/31 12:57:18;;;;;;;2.60;1.17;;;;;;;;;;5053101;28;20354;-61
2023/12/31 12:59:44;;;;;;;1.63;0.98;;;;;;;;;;5052082;28;20477;-62
2023/12/31 13:02:09;;;;;;;1.17;1.00;;;;;;;;;;5052769;28;20029;-62
2023/12/31 13:04:35;;;;;;;3.88;1.40;;;;;;;;;;5051886;28;20377;-62
2023/12/31 13:07:00;;;;;;;2.45;1.13;;;;;;;;;;5045195;28;20061;-61
2023/12/31 13:09:26;;;;;;;2.97;1.20;;;;;;;;;;5031955;28;20087;-61
2023/12/31 13:11:51;;;;;;;1.55;0.90;;;;;;;;;;5031631;28;20092;-61
2023/12/31 13:14:16;;;;;;;1.92;1.33;;;;;;;;;;5032631;28;20032;-62
2023/12/31 13:16:42;;;;;;;1.30;1.00;;;;;;;;;;5031961;28;20103;-61
2023/12/31 13:19:07;;;;;;;4.85;1.40;;;;;;;;;;5033316;28;20049;-61
2023/12/31 13:21:33;;;;;;;1.98;1.10;;;;;;;;;;5035302;28;20120;-61
2023/12/31 13:23:58;;;;;;;3.35;1.23;;;;;;;;;;5061220;28;20040;-61
2023/12/31 13:26:23;;;;;;;3.78;1.20;;;;;;;;;;5071817;28;20040;-61
2023/12/31 13:28:50;;;;;;;1.73;0.95;;;;;;;;;;5046168;28;20108;-61
2023/12/31 13:31:17;;;;;;;1.38;0.90;;;;;;;;;;5034838;28;20451;-61
2023/12/31 13:33:47;;;;;;;2.13;0.88;;;;;;;;;;5014062;28;20033;-61
2023/12/31 13:36:13;;;;;;;1.58;0.65;;;;;;;;;;5035115;28;20034;-60
2023/12/31 13:38:39;;;;;;;2.08;0.80;;;;;;;;;;5050926;28;20051;-58
2023/12/31 13:41:04;;;;;;;1.77;0.73;;;;;;;;;;5049920;28;20051;-57
2023/12/31 13:43:30;;;;;;;6.22;1.50;;;;;;;;;;5051904;28;20040;-61
2023/12/31 13:45:55;;;;;;;4.82;1.45;;;;;;;;;;5051325;28;20082;-58
2023/12/31 13:48:21;;;;;;;4.78;1.15;;;;;;;;;;5051530;28;20081;-60
2023/12/31 13:50:46;;;;;;;5.60;1.90;;;;;;;;;;5032557;28;20025;-60
2023/12/31 13:53:13;;;;;;;7.43;1.75;;;;;;;;;;5051644;28;20028;-61
2023/12/31 13:55:39;;;;;;;4.45;1.60;;;;;;;;;;5049720;28;20441;-60
2023/12/31 13:58:05;;;;;;;4.72;2.17;;;;;;;;;;5041232;28;20404;-61
2023/12/31 14:00:31;;;;;;;3.97;1.95;;;;;;;;;;5048995;28;20040;-61
2023/12/31 14:02:56;;;;;;;2.88;1.10;;;;;;;;;;5050824;28;20033;-59
2023/12/31 14:05:22;;;;;;;1.83;0.95;;;;;;;;;;5051448;28;20495;-60
2023/12/31 14:07:47;;;;;;;6.95;2.63;;;;;;;;;;5050908;28;20033;-61
2023/12/31 14:10:13;;;;;;;5.93;1.67;;;;;;;;;;5050196;28;20029;-61
2023/12/31 14:12:38;;;;;;;3.03;1.20;;;;;;;;;;5050367;28;20108;-60
2023/12/31 14:15:06;;;;;;;4.75;1.30;;;;;;;;;;5051554;28;20461;-60
2023/12/31 14:17:31;;;;;;;2.90;1.40;;;;;;;;;;5047868;28;20036;-61
2023/12/31 14:19:57;;;;;;;2.75;1.05;;;;;;;;;;5038321;28;20118;-64
2023/12/31 14:22:22;;;;;;;2.78;1.20;;;;;;;;;;5050925;28;20028;-60
2023/12/31 14:24:48;;;;;;;4.30;1.52;;;;;;;;;;5050535;28;20045;-60
2023/12/31 14:27:14;;;;;;;4.95;1.20;;;;;;;;;;5043343;28;20053;-62
2023/12/31 14:29:39;;;;;;;3.67;1.52;;;;;;;;;;5016394;28;20025;-62
2023/12/31 14:32:06;;;;;;;6.60;1.77;;;;;;;;;;5031297;28;20112;-62
2023/12/31 14:34:31;;;;;;;4.70;1.20;;;;;;;;;;5047689;28;20029;-61
2023/12/31 14:36:59;;;;;;;4.53;1.50;;;;;;;;;;5050868;28;20524;-62
2023/12/31 14:39:25;;;;;;;5.43;1.35;;;;;;;;;;5050956;28;20025;-61